^^
Station Historical Data
Daily Summary for January 20, 2018 Units:  Metric    English   Both
« Previous Day
Next Day »
Daily Weekly Monthly Yearly Custom
  High: Low: Average:
Temperature: -17.8 °C 20.2 °C 23.5 °C
Dew Point: -17.8 °C 10.1 °C 11.4 °C
Humidity: Humidity% 33% 47%
Wind Speed: 0km/h 0km/h 2.1km/h
Wind Gust: 0km/h - -
Wind- - South
Pressure: 0 hPa 1001.9 hPa -
Precipitation: 0.51 mm    
Historical Graphs
 
 
Tabular Data for January 20, 2018
Time Temperature Dew Point Pressure Wind Wind Speed Wind Gust Humidity Rainfall Rate (Hourly) solar Conditions
-17.8 °C -17.8 °C 0 hPa Calm     Humidity% 0 mm SolarRadiationWatts/m^2 W/m2 Conditions
00:04 23 °C 12 °C 1004.3 hPa Calm     50% 0 mm 0.0 W/m2
00:09 22.9 °C 11.9 °C 1003.9 hPa Calm     50% 0 mm 0.0 W/m2
00:14 22.9 °C 11.9 °C 1003.9 hPa Calm     50% 0 mm 0.0 W/m2
00:19 22.9 °C 11.9 °C 1003.9 hPa Calm   1.6 km/h 50% 0 mm 0.0 W/m2
00:24 22.9 °C 12.2 °C 1003.9 hPa Calm   1.6 km/h 51% 0 mm 0.0 W/m2
00:29 22.9 °C 12.2 °C 1003.9 hPa Calm   1.6 km/h 51% 0 mm 0.0 W/m2
00:35 22.9 °C 12.2 °C 1003.9 hPa Calm     51% 0 mm 0.0 W/m2
00:41 22.9 °C 12.2 °C 1004.3 hPa Calm     51% 0 mm 0.0 W/m2
00:46 22.8 °C 12.1 °C 1004.3 hPa Calm     51% 0 mm 0.0 W/m2
00:51 22.8 °C 12.1 °C 1004.3 hPa Calm     51% 0 mm 0.0 W/m2
00:56 22.7 °C 12.3 °C 1004.3 hPa Calm   1.6 km/h 52% 0 mm 0.0 W/m2
01:01 22.7 °C 12.6 °C 1004.3 hPa WNW 6.4 km/h 9.7 km/h 53% 0 mm 0.0 W/m2
01:06 22.7 °C 11.4 °C 1004.3 hPa NNW 7.9 km/h 11.3 km/h 49% 0 mm 0.0 W/m2
01:11 22.6 °C 11.3 °C 1004.3 hPa North 1.4 km/h 9.7 km/h 49% 0 mm 0.0 W/m2
01:17 22.5 °C 11.3 °C 1004.3 hPa North 6.4 km/h 16.1 km/h 49% 0 mm 0.0 W/m2
01:23 22.4 °C 11.5 °C 1003.9 hPa NNE 3.2 km/h 8 km/h 50% 0 mm 0.0 W/m2
01:28 22.3 °C 11.4 °C 1004.3 hPa NNE 1.4 km/h 8 km/h 50% 0 mm 0.0 W/m2
01:33 22.2 °C 11.3 °C 1004.3 hPa NNE 4.7 km/h 6.4 km/h 50% 0 mm 0.0 W/m2
01:38 22.1 °C 11.2 °C 1004.3 hPa North 1.4 km/h 8 km/h 50% 0 mm 0.0 W/m2
01:43 22 °C 11.1 °C 1004.3 hPa NNE 3.2 km/h 3.2 km/h 50% 0 mm 0.0 W/m2
01:48 21.9 °C 11 °C 1003.9 hPa Calm   3.2 km/h 50% 0 mm 0.0 W/m2
01:53 21.9 °C 10.7 °C 1003.9 hPa Calm   3.2 km/h 49% 0 mm 0.0 W/m2
01:58 21.8 °C 10.9 °C 1004.3 hPa North 1.4 km/h 6.4 km/h 50% 0 mm 0.0 W/m2
02:03 21.8 °C 10.6 °C 1003.9 hPa Calm   1.6 km/h 49% 0 mm 0.0 W/m2
02:08 21.7 °C 10.5 °C 1003.9 hPa NNW 1.4 km/h 1.6 km/h 49% 0 mm 0.0 W/m2
02:14 21.7 °C 10.5 °C 1003.9 hPa NE 1.4 km/h 4.8 km/h 49% 0 mm 0.0 W/m2
02:19 21.7 °C 10.5 °C 1003.9 hPa NW 1.4 km/h 3.2 km/h 49% 0 mm 0.0 W/m2
02:24 21.7 °C 10.5 °C 1003.9 hPa Calm   4.8 km/h 49% 0 mm 0.0 W/m2
02:29 21.6 °C 10.4 °C 1003.9 hPa North 1.4 km/h 6.4 km/h 49% 0 mm 0.0 W/m2
02:34 21.6 °C 10.4 °C 1003.9 hPa North 3.2 km/h 4.8 km/h 49% 0 mm 0.0 W/m2
02:39 21.6 °C 10.4 °C 1003.9 hPa Calm   3.2 km/h 49% 0 mm 0.0 W/m2
02:44 21.6 °C 10.4 °C 1003.9 hPa North 1.4 km/h 3.2 km/h 49% 0 mm 0.0 W/m2
02:49 21.6 °C 10.4 °C 1003.9 hPa NNE 1.4 km/h 3.2 km/h 49% 0 mm 0.0 W/m2
02:55 21.5 °C 10.3 °C 1003.9 hPa Calm   3.2 km/h 49% 0 mm 0.0 W/m2
03:00 21.5 °C 10.3 °C 1003.9 hPa Calm   4.8 km/h 49% 0 mm 0.0 W/m2
03:05 21.4 °C 10.2 °C 1003.6 hPa Calm   1.6 km/h 49% 0 mm 0.0 W/m2
03:10 21.4 °C 10.5 °C 1003.6 hPa Calm   1.6 km/h 50% 0 mm 0.0 W/m2
03:15 21.3 °C 10.5 °C 1003.6 hPa Calm   3.2 km/h 50% 0 mm 0.0 W/m2
03:20 21.3 °C 10.5 °C 1003.3 hPa Calm   1.6 km/h 50% 0 mm 0.0 W/m2
03:25 21.2 °C 10.4 °C 1003.3 hPa Calm     50% 0 mm 0.0 W/m2
03:31 21.2 °C 10.4 °C 1003.3 hPa Calm     50% 0 mm 0.0 W/m2
03:35 21.1 °C 10.6 °C 1003.3 hPa Calm   1.6 km/h 51% 0 mm 0.0 W/m2
03:40 21.1 °C 10.6 °C 1002.9 hPa Calm   1.6 km/h 51% 0 mm 0.0 W/m2
03:45 21.1 °C 10.6 °C 1002.9 hPa Calm     51% 0 mm 0.0 W/m2
03:50 21 °C 10.5 °C 1002.9 hPa Calm     51% 0 mm 0.0 W/m2
03:56 21 °C 10.8 °C 1002.6 hPa Calm     52% 0 mm 0.0 W/m2
04:02 20.9 °C 10.7 °C 1002.6 hPa Calm     52% 0 mm 0.0 W/m2
04:07 20.9 °C 10.7 °C 1002.6 hPa Calm   1.6 km/h 52% 0 mm 0.0 W/m2
04:12 20.9 °C 10.7 °C 1002.6 hPa Calm     52% 0 mm 0.0 W/m2
04:17 20.9 °C 10.7 °C 1002.6 hPa Calm     52% 0 mm 0.0 W/m2
04:22 20.8 °C 10.6 °C 1002.6 hPa Calm     52% 0 mm 0.0 W/m2
04:27 20.8 °C 10.6 °C 1002.6 hPa Calm     52% 0 mm 0.0 W/m2
04:33 20.8 °C 10.6 °C 1002.6 hPa Calm   1.6 km/h 52% 0 mm 0.0 W/m2
04:38 20.8 °C 10.9 °C 1002.6 hPa Calm   1.6 km/h 53% 0 mm 0.0 W/m2
04:43 20.7 °C 10.8 °C 1002.6 hPa Calm     53% 0 mm 0.0 W/m2
04:48 20.7 °C 10.8 °C 1002.6 hPa Calm     53% 0 mm 0.0 W/m2
04:53 20.7 °C 10.8 °C 1002.6 hPa Calm   1.6 km/h 53% 0 mm 0.0 W/m2
04:59 20.6 °C 11 °C 1002.6 hPa Calm     54% 0 mm 0.0 W/m2
05:04 20.6 °C 11 °C 1002.6 hPa Calm     54% 0 mm 0.0 W/m2
05:09 20.6 °C 11 °C 1002.6 hPa Calm   1.6 km/h 54% 0 mm 0.0 W/m2
05:15 20.5 °C 10.9 °C 1002.6 hPa Calm   3.2 km/h 54% 0 mm 0.0 W/m2
05:20 20.5 °C 10.9 °C 1002.6 hPa Calm     54% 0 mm 0.0 W/m2
05:25 20.5 °C 10.9 °C 1002.6 hPa Calm   1.6 km/h 54% 0 mm 0.0 W/m2
05:30 20.4 °C 10.8 °C 1002.6 hPa ENE 1.4 km/h 1.6 km/h 54% 0 mm 0.0 W/m2
05:35 20.4 °C 10.8 °C 1002.9 hPa Calm   1.6 km/h 54% 0 mm 0.0 W/m2
05:40 20.4 °C 10.8 °C 1002.9 hPa Calm   3.2 km/h 54% 0 mm 0.0 W/m2
05:45 20.4 °C 10.8 °C 1002.9 hPa Calm   1.6 km/h 54% 0 mm 0.0 W/m2
05:50 20.3 °C 11 °C 1002.9 hPa Calm   1.6 km/h 55% 0 mm 0.0 W/m2
05:56 20.3 °C 11 °C 1002.9 hPa Calm   4.8 km/h 55% 0 mm 0.0 W/m2
06:01 20.3 °C 11 °C 1002.9 hPa Calm     55% 0 mm 0.0 W/m2
06:06 20.3 °C 11.2 °C 1002.9 hPa Calm   1.6 km/h 56% 0 mm 0.0 W/m2
06:12 20.3 °C 11 °C 1002.9 hPa Calm   1.6 km/h 55% 0 mm 0.0 W/m2
06:17 20.3 °C 11 °C 1002.9 hPa SSE 4.7 km/h 4.8 km/h 55% 0 mm 0.0 W/m2
06:22 20.3 °C 11 °C 1002.9 hPa SSE 3.2 km/h 3.2 km/h 55% 0 mm 0.0 W/m2
06:28 20.3 °C 11 °C 1002.9 hPa Calm     55% 0 mm 0.0 W/m2
06:33 20.3 °C 11 °C 1002.9 hPa Calm     55% 0 mm 5.0 W/m2
06:38 20.3 °C 11 °C 1002.9 hPa Calm     55% 0 mm 7.0 W/m2
06:44 20.2 °C 11.1 °C 1002.9 hPa Calm     56% 0 mm 11.0 W/m2
06:49 20.2 °C 11.1 °C 1002.9 hPa Calm   1.6 km/h 56% 0 mm 12.0 W/m2
06:54 20.3 °C 11.2 °C 1002.9 hPa Calm   1.6 km/h 56% 0 mm 14.0 W/m2
07:00 20.3 °C 11 °C 1002.9 hPa Calm   4.8 km/h 55% 0 mm 19.0 W/m2
07:05 20.4 °C 11.1 °C 1003.3 hPa Calm   3.2 km/h 55% 0 mm 21.0 W/m2
07:10 20.4 °C 11.1 °C 1003.3 hPa Calm     55% 0 mm 18.0 W/m2
07:16 20.6 °C 13.1 °C 1003.3 hPa SSE 4.7 km/h 4.8 km/h 62% 0 mm 19.0 W/m2
07:21 20.5 °C 13 °C 1002.9 hPa SE 3.2 km/h 11.3 km/h 62% 0 mm 26.0 W/m2
07:26 20.5 °C 12.7 °C 1002.9 hPa South 3.2 km/h 4.8 km/h 61% 0 mm 30.0 W/m2
07:32 20.8 °C 10.9 °C 1002.9 hPa SSE 13 km/h 22.5 km/h 53% 0 mm 42.0 W/m2
07:37 21.2 °C 10.4 °C 1002.9 hPa SE 9.7 km/h 19.3 km/h 50% 0 mm 54.0 W/m2
07:42 21.4 °C 10.8 °C 1003.3 hPa SSE 7.9 km/h 14.5 km/h 51% 0 mm 53.0 W/m2
07:48 21.6 °C 10.4 °C 1003.6 hPa North 3.2 km/h 3.2 km/h 49% 0 mm 35.0 W/m2
07:53 21.7 °C 11.4 °C 1003.9 hPa North 13 km/h 14.5 km/h 52% 0 mm 32.0 W/m2
07:58 21.5 °C 12.4 °C 1003.9 hPa North 4.7 km/h 8 km/h 56% 0 mm 30.0 W/m2
08:04 21.2 °C 12.1 °C 1003.9 hPa North 6.4 km/h 12.9 km/h 56% 0 mm 37.0 W/m2
08:09 21.1 °C 12 °C 1003.9 hPa North 1.4 km/h 4.8 km/h 56% 0 mm 42.0 W/m2
08:14 21.2 °C 11.5 °C 1003.9 hPa Calm   3.2 km/h 54% 0 mm 51.0 W/m2
08:20 21.2 °C 11 °C 1003.9 hPa Calm   3.2 km/h 52% 0 mm 56.0 W/m2
08:25 21.4 °C 11.4 °C 1003.9 hPa NNW 3.2 km/h 3.2 km/h 53% 0 mm 62.0 W/m2
08:30 21.6 °C 12.4 °C 1004.3 hPa Calm   1.6 km/h 56% 0 mm 70.0 W/m2
08:36 21.7 °C 13.3 °C 1004.3 hPa Calm   3.2 km/h 59% 0 mm 70.0 W/m2
08:41 21.7 °C 14.6 °C 1004.3 hPa Calm   1.6 km/h 64% 0 mm 69.0 W/m2
08:46 21.6 °C 14.5 °C 1003.9 hPa SSW 1.4 km/h 1.6 km/h 64% 0 mm 65.0 W/m2
08:52 21.5 °C 14.9 °C 1003.9 hPa Calm   3.2 km/h 66% 0.25 mm 65.0 W/m2
08:57 21.3 °C 14.7 °C 1003.9 hPa SE 3.2 km/h 4.8 km/h 66% 0.25 mm 67.0 W/m2
09:02 21.2 °C 13.1 °C 1003.9 hPa SSE 4.7 km/h 8 km/h 60% 0.25 mm 72.0 W/m2
09:08 21 °C 12.9 °C 1003.9 hPa Calm   1.6 km/h 60% 0.25 mm 74.0 W/m2
09:13 20.9 °C 14.1 °C 1004.3 hPa NNW 3.2 km/h 6.4 km/h 65% 0.25 mm 86.0 W/m2
09:18 20.8 °C 13.5 °C 1004.3 hPa Calm   11.3 km/h 63% 0.25 mm 105.0 W/m2
09:24 20.7 °C 13.6 °C 1004.6 hPa NW 3.2 km/h 3.2 km/h 64% 0.25 mm 135.0 W/m2
09:29 20.6 °C 12.8 °C 1004.6 hPa NNW 3.2 km/h 4.8 km/h 61% 0.25 mm 163.0 W/m2
09:34 20.6 °C 13.1 °C 1004.6 hPa NE 3.2 km/h 4.8 km/h 62% 0.25 mm 193.0 W/m2
09:40 20.8 °C 12.5 °C 1004.6 hPa Calm   6.4 km/h 59% 0.25 mm 243.0 W/m2
09:45 21.1 °C 12.5 °C 1004.6 hPa ENE 3.2 km/h 8 km/h 58% 0.25 mm 281.0 W/m2
09:50 21.4 °C 12.3 °C 1004.6 hPa NE 9.7 km/h 11.3 km/h 56% 0 mm 343.0 W/m2
09:56 22 °C 12.3 °C 1004.6 hPa ENE 1.4 km/h 8 km/h 54% 0 mm 1046.0 W/m2
10:02 22.7 °C 12.6 °C 1004.6 hPa East 4.7 km/h 6.4 km/h 53% 0 mm 322.0 W/m2
10:07 23 °C 12.6 °C 1004.6 hPa ENE 1.4 km/h 8 km/h 52% 0 mm 255.0 W/m2
10:12 23.3 °C 12 °C 1004.6 hPa East 4.7 km/h 11.3 km/h 49% 0 mm 218.0 W/m2
10:17 23.6 °C 11.9 °C 1004.6 hPa NNE 9.7 km/h 11.3 km/h 48% 0 mm 183.0 W/m2
10:22 23.8 °C 11.2 °C 1004.6 hPa ENE 6.4 km/h 6.4 km/h 45% 0 mm 179.0 W/m2
10:28 24 °C 11 °C 1004.6 hPa North 3.2 km/h 6.4 km/h 44% 0 mm 185.0 W/m2
10:33 24.2 °C 11.2 °C 1004.6 hPa NE 3.2 km/h 8 km/h 44% 0 mm 185.0 W/m2
10:38 24.3 °C 10.6 °C 1004.6 hPa Calm   8 km/h 42% 0 mm 190.0 W/m2
10:44 24.5 °C 11.1 °C 1004.6 hPa Calm   1.6 km/h 43% 0 mm 188.0 W/m2
10:50 24.7 °C 12 °C 1004.6 hPa NE 4.7 km/h 12.9 km/h 45% 0 mm 174.0 W/m2
10:55 24.6 °C 12.5 °C 1004.6 hPa NNE 3.2 km/h 14.5 km/h 47% 0 mm 160.0 W/m2
11:00 24.4 °C 12.7 °C 1004.6 hPa North 4.7 km/h 9.7 km/h 48% 0 mm 160.0 W/m2
11:05 24.3 °C 12.3 °C 1005 hPa East 6.4 km/h 11.3 km/h 47% 0 mm 148.0 W/m2
11:10 24.2 °C 12.5 °C 1005 hPa North 1.4 km/h 8 km/h 48% 0 mm 127.0 W/m2
11:16 24.2 °C 12.8 °C 1005 hPa NW 1.4 km/h 6.4 km/h 49% 0 mm 113.0 W/m2
11:21 24.1 °C 12.4 °C 1005 hPa NNW 6.4 km/h 6.4 km/h 48% 0 mm 105.0 W/m2
11:26 24 °C 12.9 °C 1005 hPa NNE 9.7 km/h 12.9 km/h 50% 0 mm 97.0 W/m2
11:31 23.7 °C 13.6 °C 1005 hPa NNE 3.2 km/h 6.4 km/h 53% 0 mm 98.0 W/m2
11:37 23.3 °C 13.2 °C 1005 hPa NNW 3.2 km/h 9.7 km/h 53% 0 mm 104.0 W/m2
11:42 23 °C 14.3 °C 1005 hPa NNE 4.7 km/h 6.4 km/h 58% 0 mm 109.0 W/m2
11:48 22.7 °C 14.5 °C 1005 hPa North 1.4 km/h 1.6 km/h 60% 0 mm 120.0 W/m2
11:53 22.5 °C 15.1 °C 1004.6 hPa Calm     63% 0.25 mm 125.0 W/m2
11:58 22.4 °C 15 °C 1004.6 hPa Calm     63% 0.25 mm 135.0 W/m2
12:04 22.4 °C 15 °C 1005 hPa Calm     63% 0.25 mm 149.0 W/m2
12:09 22.4 °C 14.5 °C 1004.6 hPa Calm     61% 0.25 mm 158.0 W/m2
12:14 22.4 °C 15.3 °C 1004.6 hPa Calm     64% 0.25 mm 174.0 W/m2
12:19 22.5 °C 15.8 °C 1004.6 hPa South 3.2 km/h 3.2 km/h 66% 0.25 mm 195.0 W/m2
12:24 22.4 °C 14.5 °C 1004.6 hPa Calm   3.2 km/h 61% 0.25 mm 216.0 W/m2
12:29 22.4 °C 14.5 °C 1004.6 hPa Calm   1.6 km/h 61% 0.25 mm 229.0 W/m2
12:34 22.4 °C 14.8 °C 1004.6 hPa Calm   4.8 km/h 62% 0.25 mm 241.0 W/m2
12:39 22.5 °C 13 °C 1004.6 hPa SSW 1.4 km/h 6.4 km/h 55% 0.25 mm 265.0 W/m2
12:44 22.7 °C 13.2 °C 1004.6 hPa SSE 1.4 km/h 3.2 km/h 55% 0.25 mm 343.0 W/m2
12:50 23.1 °C 13.3 °C 1004.6 hPa SE 3.2 km/h 4.8 km/h 54% 0.25 mm 696.0 W/m2
12:55 23.6 °C 13.5 °C 1004.3 hPa SE 1.4 km/h 3.2 km/h 53% 0 mm 737.0 W/m2
13:00 24.1 °C 12.1 °C 1004.6 hPa Calm   4.8 km/h 47% 0 mm 628.0 W/m2
13:06 24.6 °C 12.2 °C 1004.6 hPa SE 4.7 km/h 6.4 km/h 46% 0 mm 540.0 W/m2
13:11 25.1 °C 12 °C 1004.3 hPa Calm   1.6 km/h 44% 0 mm 540.0 W/m2
13:16 25.4 °C 11.2 °C 1004.3 hPa SSE 1.4 km/h 1.6 km/h 41% 0 mm 457.0 W/m2
13:21 25.7 °C 11.8 °C 1004.3 hPa Calm     42% 0 mm 425.0 W/m2
13:26 25.9 °C 10.5 °C 1004.3 hPa Calm   4.8 km/h 38% 0 mm 401.0 W/m2
13:31 26 °C 11.4 °C 1004.3 hPa SE 1.4 km/h 1.6 km/h 40% 0 mm 411.0 W/m2
13:36 26.1 °C 11.1 °C 1004.3 hPa ESE 1.4 km/h 3.2 km/h 39% 0 mm 469.0 W/m2
13:41 26.3 °C 10.8 °C 1004.3 hPa Calm   3.2 km/h 38% 0 mm 575.0 W/m2
13:46 26.6 °C 10.7 °C 1003.9 hPa Calm   1.6 km/h 37% 0 mm 912.0 W/m2
13:52 26.9 °C 11.8 °C 1003.9 hPa WSW 1.4 km/h 3.2 km/h 39% 0 mm 487.0 W/m2
13:57 27.3 °C 11.3 °C 1003.9 hPa Calm   4.8 km/h 37% 0 mm 457.0 W/m2
14:02 27.6 °C 11.6 °C 1003.9 hPa NNW 1.4 km/h 8 km/h 37% 0 mm 390.0 W/m2
14:07 27.7 °C 11.7 °C 1003.9 hPa NNW 1.4 km/h 4.8 km/h 37% 0 mm 348.0 W/m2
14:12 27.8 °C 11.4 °C 1003.9 hPa Calm     36% 0 mm 332.0 W/m2
14:17 27.9 °C 11 °C 1003.9 hPa NNW 1.4 km/h 6.4 km/h 35% 0 mm 309.0 W/m2
14:22 27.7 °C 11.3 °C 1003.9 hPa Calm   4.8 km/h 36% 0 mm 334.0 W/m2
14:27 27.6 °C 11.6 °C 1003.6 hPa NNW 4.7 km/h 8 km/h 37% 0 mm 345.0 W/m2
14:33 27.6 °C 11.6 °C 1003.9 hPa NW 1.4 km/h 9.7 km/h 37% 0 mm 359.0 W/m2
14:38 27.7 °C 12.1 °C 1003.9 hPa Calm   4.8 km/h 38% 0 mm 410.0 W/m2
14:43 27.9 °C 11.9 °C 1003.6 hPa Calm   4.8 km/h 37% 0 mm 577.0 W/m2
14:48 28.2 °C 11.7 °C 1003.9 hPa NE 7.9 km/h 11.3 km/h 36% 0 mm 577.0 W/m2
14:53 28.3 °C 11.8 °C 1003.6 hPa NNW 6.4 km/h 6.4 km/h 36% 0 mm 278.0 W/m2
14:58 28.3 °C 12.2 °C 1003.6 hPa NNW 4.7 km/h 4.8 km/h 37% 0 mm 243.0 W/m2
15:03 28.3 °C 11.8 °C 1003.6 hPa NE 3.2 km/h 6.4 km/h 36% 0 mm 214.0 W/m2
15:08 28.2 °C 11.7 °C 1003.6 hPa East 1.4 km/h 4.8 km/h 36% 0 mm 188.0 W/m2
15:13 28 °C 11.1 °C 1003.6 hPa Calm   8 km/h 35% 0 mm 155.0 W/m2
15:18 27.7 °C 10.8 °C 1003.3 hPa North 3.2 km/h 4.8 km/h 35% 0 mm 144.0 W/m2
15:23 27.6 °C 11.2 °C 1003.3 hPa ENE 1.4 km/h 4.8 km/h 36% 0 mm 137.0 W/m2
15:29 27.6 °C 11.2 °C 1003.3 hPa Calm     36% 0 mm 135.0 W/m2
15:34 27.4 °C 10.6 °C 1003.3 hPa Calm   3.2 km/h 35% 0 mm 137.0 W/m2
15:39 27.3 °C 10.5 °C 1003.3 hPa Calm   4.8 km/h 35% 0 mm 128.0 W/m2
15:44 27.2 °C 10.8 °C 1003.3 hPa Calm     36% 0 mm 121.0 W/m2
15:49 27.2 °C 11.2 °C 1003.3 hPa NW 3.2 km/h 3.2 km/h 37% 0 mm 120.0 W/m2
15:54 27.1 °C 10.3 °C 1003.3 hPa NNW 1.4 km/h 3.2 km/h 35% 0 mm 125.0 W/m2
15:59 27 °C 10.2 °C 1003.3 hPa Calm   4.8 km/h 35% 0 mm 134.0 W/m2
16:04 26.9 °C 10.1 °C 1003.3 hPa Calm   4.8 km/h 35% 0 mm 142.0 W/m2
16:09 26.9 °C 11 °C 1003.3 hPa Calm     37% 0 mm 146.0 W/m2
16:15 26.9 °C 10.1 °C 1002.9 hPa Calm   3.2 km/h 35% 0 mm 137.0 W/m2
16:20 26.9 °C 10.1 °C 1002.9 hPa NNW 1.4 km/h 1.6 km/h 35% 0 mm 155.0 W/m2
16:25 26.8 °C 10.5 °C 1002.9 hPa Calm   1.6 km/h 36% 0 mm 179.0 W/m2
16:30 26.8 °C 10.1 °C 1002.9 hPa Calm   1.6 km/h 35% 0 mm 192.0 W/m2
16:35 26.9 °C 11 °C 1002.9 hPa Calm     37% 0 mm 204.0 W/m2
16:40 27 °C 11.1 °C 1002.6 hPa Calm     37% 0 mm 202.0 W/m2
16:45 27.1 °C 11.2 °C 1002.6 hPa Calm     37% 0 mm 207.0 W/m2
16:50 27.2 °C 10.8 °C 1002.6 hPa Calm     36% 0 mm 202.0 W/m2
16:55 27.2 °C 10.8 °C 1002.6 hPa SSW 1.4 km/h 3.2 km/h 36% 0 mm 192.0 W/m2
17:01 27.2 °C 10.8 °C 1002.6 hPa Calm   3.2 km/h 36% 0 mm 188.0 W/m2
17:06 27.2 °C 10.8 °C 1002.3 hPa Calm     36% 0 mm 202.0 W/m2
17:11 27.3 °C 10.9 °C 1002.3 hPa Calm   1.6 km/h 36% 0 mm 207.0 W/m2
17:16 27.3 °C 10.5 °C 1002.3 hPa Calm   4.8 km/h 35% 0 mm 213.0 W/m2
17:21 27.4 °C 10.6 °C 1002.3 hPa SE 1.4 km/h 6.4 km/h 35% 0 mm 229.0 W/m2
17:26 27.4 °C 11 °C 1002.3 hPa SE 4.7 km/h 4.8 km/h 36% 0 mm 309.0 W/m2
17:31 27.7 °C 10.8 °C 1001.9 hPa ESE 3.2 km/h 8 km/h 35% 0 mm 490.0 W/m2
17:36 27.9 °C 11 °C 1001.9 hPa SE 4.7 km/h 6.4 km/h 35% 0 mm 225.0 W/m2
17:42 28.1 °C 11.2 °C 1002.3 hPa SE 1.4 km/h 3.2 km/h 35% 0 mm 178.0 W/m2
17:47 28.1 °C 10.3 °C 1002.3 hPa SE 1.4 km/h 1.6 km/h 33% 0 mm 165.0 W/m2
17:52 28 °C 11.1 °C 1002.3 hPa ESE 3.2 km/h 3.2 km/h 35% 0 mm 181.0 W/m2
17:57 27.9 °C 11 °C 1002.3 hPa Calm     35% 0 mm 174.0 W/m2
18:02 28 °C 11.1 °C 1001.9 hPa Calm   1.6 km/h 35% 0 mm 174.0 W/m2
18:07 28 °C 10.7 °C 1002.3 hPa Calm   1.6 km/h 34% 0 mm 169.0 W/m2
18:12 28 °C 10.7 °C 1002.3 hPa Calm   1.6 km/h 34% 0 mm 151.0 W/m2
18:18 27.9 °C 11 °C 1002.3 hPa SSW 3.2 km/h 6.4 km/h 35% 0 mm 232.0 W/m2
18:23 28 °C 11.1 °C 1002.3 hPa Calm     35% 0 mm 139.0 W/m2
18:28 28.2 °C 10.8 °C 1002.3 hPa SSE 3.2 km/h 3.2 km/h 34% 0 mm 162.0 W/m2
18:33 28.4 °C 11 °C 1002.6 hPa Calm   1.6 km/h 34% 0 mm 109.0 W/m2
18:38 28.6 °C 11.2 °C 1002.6 hPa WSW 1.4 km/h 1.6 km/h 34% 0 mm 169.0 W/m2
18:43 28.7 °C 10.8 °C 1002.6 hPa Calm     33% 0 mm 83.0 W/m2
18:48 28.6 °C 11.2 °C 1002.6 hPa Calm   1.6 km/h 34% 0 mm 72.0 W/m2
18:53 28.4 °C 10.6 °C 1002.6 hPa Calm     33% 0 mm 67.0 W/m2
18:58 28.4 °C 11 °C 1002.6 hPa Calm     34% 0 mm 63.0 W/m2
19:03 28.3 °C 10.9 °C 1002.6 hPa Calm     34% 0 mm 54.0 W/m2
19:09 28.2 °C 10.8 °C 1002.6 hPa Calm   1.6 km/h 34% 0 mm 49.0 W/m2
19:14 28.1 °C 10.8 °C 1002.9 hPa Calm   1.6 km/h 34% 0 mm 35.0 W/m2
19:19 27.9 °C 10.6 °C 1002.9 hPa Calm     34% 0 mm 28.0 W/m2
19:24 27.7 °C 10.4 °C 1002.9 hPa Calm     34% 0 mm 21.0 W/m2
19:29 27.6 °C 10.8 °C 1002.9 hPa Calm   1.6 km/h 35% 0 mm 14.0 W/m2
19:34 27.4 °C 10.6 °C 1002.9 hPa Calm     35% 0 mm 9.0 W/m2
19:39 27.2 °C 10.8 °C 1002.9 hPa Calm     36% 0 mm 5.0 W/m2
19:44 27 °C 10.7 °C 1002.9 hPa Calm     36% 0 mm 0.0 W/m2
19:49 26.8 °C 10.9 °C 1003.3 hPa Calm     37% 0 mm 0.0 W/m2
19:54 26.6 °C 10.7 °C 1003.3 hPa Calm     37% 0 mm 0.0 W/m2
19:59 26.4 °C 10.9 °C 1003.3 hPa Calm     38% 0 mm 0.0 W/m2
20:05 26.1 °C 10.7 °C 1003.3 hPa Calm     38% 0 mm 0.0 W/m2
20:10 25.9 °C 10.9 °C 1003.3 hPa Calm     39% 0 mm 0.0 W/m2
20:15 25.7 °C 10.7 °C 1003.6 hPa Calm     39% 0 mm 0.0 W/m2
20:20 25.4 °C 10.8 °C 1003.6 hPa Calm     40% 0 mm 0.0 W/m2
20:25 25.2 °C 10.6 °C 1003.6 hPa Calm     40% 0 mm 0.0 W/m2
20:30 25.1 °C 10.9 °C 1003.6 hPa Calm     41% 0 mm 0.0 W/m2
20:35 24.9 °C 10.7 °C 1003.9 hPa Calm   1.6 km/h 41% 0 mm 0.0 W/m2
20:40 24.7 °C 10.2 °C 1003.9 hPa NNW 6.4 km/h 11.3 km/h 40% 0 mm 0.0 W/m2
20:45 24.8 °C 10.3 °C 1003.9 hPa NE 6.4 km/h 11.3 km/h 40% 0 mm 0.0 W/m2
20:51 24.9 °C 10.7 °C 1004.3 hPa NNW 6.4 km/h 11.3 km/h 41% 0 mm 0.0 W/m2
20:56 24.9 °C 10.7 °C 1004.3 hPa NNW 4.7 km/h 11.3 km/h 41% 0 mm 0.0 W/m2
21:01 24.8 °C 10.7 °C 1004.3 hPa NNW 7.9 km/h 14.5 km/h 41% 0 mm 0.0 W/m2
21:06 24.7 °C 10.9 °C 1004.6 hPa North 7.9 km/h 12.9 km/h 42% 0 mm 0.0 W/m2
21:11 24.6 °C 10.8 °C 1004.6 hPa NW 4.7 km/h 14.5 km/h 42% 0 mm 0.0 W/m2
21:16 24.4 °C 10.7 °C 1004.6 hPa NNE 3.2 km/h 6.4 km/h 42% 0 mm 0.0 W/m2
21:21 24.3 °C 10.9 °C 1005 hPa NNE 6.4 km/h 6.4 km/h 43% 0 mm 0.0 W/m2
21:26 24.3 °C 10.9 °C 1005 hPa NNE 13 km/h 17.7 km/h 43% 0 mm 0.0 W/m2
21:32 24.1 °C 10.7 °C 1005.3 hPa North 6.4 km/h 22.5 km/h 43% 0 mm 0.0 W/m2
21:37 23.9 °C 10.9 °C 1005.3 hPa NE 4.7 km/h 16.1 km/h 44% 0 mm 0.0 W/m2
21:42 23.8 °C 11.5 °C 1005.6 hPa NNW 11.1 km/h 17.7 km/h 46% 0 mm 0.0 W/m2
21:47 23.6 °C 11.9 °C 1005.6 hPa North 14.3 km/h 22.5 km/h 48% 0 mm 0.0 W/m2
21:52 23.3 °C 12 °C 1005.6 hPa North 9.7 km/h 16.1 km/h 49% 0 mm 0.0 W/m2
21:57 23.2 °C 12.2 °C 1005.6 hPa NNE 13 km/h 16.1 km/h 50% 0 mm 0.0 W/m2
22:02 23 °C 12 °C 1005.6 hPa North 3.2 km/h 12.9 km/h 50% 0 mm 0.0 W/m2
22:07 22.9 °C 11.9 °C 1005.6 hPa NNW 7.9 km/h 16.1 km/h 50% 0 mm 0.0 W/m2
22:12 22.9 °C 11.9 °C 1005.6 hPa NE 6.4 km/h 9.7 km/h 50% 0 mm 0.0 W/m2
22:18 22.8 °C 11.5 °C 1005.6 hPa NNW 11.1 km/h 11.3 km/h 49% 0 mm 0.0 W/m2
22:23 22.8 °C 11.5 °C 1006 hPa North 13 km/h 13 km/h 49% 0 mm 0.0 W/m2
22:28 22.7 °C 11.4 °C 1006 hPa NW 14.3 km/h 14.5 km/h 49% 0 mm 0.0 W/m2
22:33 22.5 °C 11.3 °C 1006 hPa NNW 9.7 km/h 16.1 km/h 49% 0 mm 0.0 W/m2
22:38 22.4 °C 11.2 °C 1006 hPa Calm   9.7 km/h 49% 0 mm 0.0 W/m2
22:43 22.2 °C 11.3 °C 1006 hPa North 4.7 km/h 4.8 km/h 50% 0 mm 0.0 W/m2
22:48 22.2 °C 11.6 °C 1006.3 hPa North 7.9 km/h 8 km/h 51% 0 mm 0.0 W/m2
22:53 22 °C 11.7 °C 1006.3 hPa Calm   11.3 km/h 52% 0 mm 0.0 W/m2
22:58 21.8 °C 12.4 °C 1006.3 hPa NW 3.2 km/h 8 km/h 55% 0 mm 0.0 W/m2
23:04 21.6 °C 12.4 °C 1006.3 hPa Calm   3.2 km/h 56% 0 mm 0.0 W/m2
23:09 21.3 °C 12.2 °C 1006.3 hPa Calm   1.6 km/h 56% 0 mm 0.0 W/m2
23:14 21.2 °C 12.6 °C 1006.3 hPa Calm   1.6 km/h 58% 0 mm 0.0 W/m2
23:19 21.1 °C 12.5 °C 1006.3 hPa Calm     58% 0 mm 0.0 W/m2
23:24 20.9 °C 12.3 °C 1006.3 hPa NW 1.4 km/h 1.6 km/h 58% 0 mm 0.0 W/m2
23:29 20.8 °C 12.5 °C 1006.3 hPa Calm     59% 0 mm 0.0 W/m2
23:34 20.7 °C 12.7 °C 1006.3 hPa WSW 1.4 km/h 3.2 km/h 60% 0 mm 0.0 W/m2
23:40 20.6 °C 12.8 °C 1006.3 hPa Calm   1.6 km/h 61% 0 mm 0.0 W/m2
23:45 20.5 °C 13 °C 1006.3 hPa Calm   4.8 km/h 62% 0 mm 0.0 W/m2
23:50 20.4 °C 13.1 °C 1006.3 hPa Calm   1.6 km/h 63% 0 mm 0.0 W/m2
23:55 20.3 °C 13.3 °C 1006.3 hPa Calm   3.2 km/h 64% 0 mm 0.0 W/m2
Olympia, Windhoek, Namibia
Compliments of Weather Underground - 3.25 mb